createdAt,value
2023-05-08T00:00:39.599Z,84
2023-05-08T00:10:39.591Z,84
2023-05-08T00:20:39.597Z,83
2023-05-08T00:30:39.652Z,83
2023-05-08T00:40:39.527Z,84
2023-05-08T00:50:39.552Z,84
2023-05-08T01:00:39.584Z,84
2023-05-08T01:10:39.548Z,84
2023-05-08T01:20:39.548Z,84
2023-05-08T01:30:39.495Z,84
2023-05-08T01:40:39.503Z,85
2023-05-08T01:50:39.523Z,84
2023-05-08T02:00:39.554Z,84
2023-05-08T02:10:39.498Z,84
2023-05-08T02:20:39.465Z,84
2023-05-08T02:30:39.496Z,84
2023-05-08T02:40:39.479Z,84
2023-05-08T02:50:39.480Z,84
2023-05-08T03:00:39.451Z,83
2023-05-08T03:10:39.463Z,83
2023-05-08T03:20:39.454Z,84
2023-05-08T03:30:39.439Z,84
2023-05-08T03:40:39.419Z,84
2023-05-08T03:50:39.402Z,84
2023-05-08T04:00:39.395Z,84
2023-05-08T04:10:39.398Z,84
2023-05-08T04:20:39.412Z,84
2023-05-08T04:30:39.437Z,84
2023-05-08T04:40:39.428Z,83
2023-05-08T04:50:39.385Z,84
2023-05-08T05:00:39.390Z,84
2023-05-08T05:10:39.377Z,85
2023-05-08T05:20:39.393Z,84
2023-05-08T05:30:39.419Z,84
2023-05-08T05:40:39.359Z,84
2023-05-08T05:50:39.349Z,82
2023-05-08T06:00:39.371Z,83
2023-05-08T06:10:39.370Z,82
2023-05-08T06:20:39.342Z,82
2023-05-08T06:30:39.336Z,82
2023-05-08T06:40:39.303Z,81
2023-05-08T06:50:39.301Z,82
2023-05-08T07:00:39.309Z,81
2023-05-08T07:10:39.271Z,81
2023-05-08T07:20:39.297Z,81
2023-05-08T07:30:39.282Z,82
2023-05-08T07:40:39.249Z,82
2023-05-08T07:50:39.230Z,82
2023-05-08T08:00:39.222Z,83
2023-05-08T08:10:39.256Z,84
2023-05-08T08:20:39.239Z,86
2023-05-08T08:30:39.215Z,86
2023-05-08T08:40:39.210Z,91
2023-05-08T08:50:39.187Z,92
2023-05-08T09:00:39.193Z,97
2023-05-08T09:10:39.192Z,100
2023-05-08T09:20:39.138Z,100
2023-05-08T09:30:39.177Z,100
2023-05-08T09:40:39.144Z,100
2023-05-08T10:00:39.145Z,100
2023-05-08T10:10:39.140Z,100
2023-05-08T10:20:39.092Z,100
2023-05-08T10:30:39.133Z,99
2023-05-08T10:40:39.121Z,98
2023-05-08T10:50:39.069Z,89
2023-05-08T11:00:39.064Z,83
2023-05-08T11:10:39.065Z,80
2023-05-08T11:20:39.039Z,80
2023-05-08T11:30:39.044Z,71
2023-05-08T11:50:39.023Z,68
2023-05-08T12:00:39.036Z,68
2023-05-08T12:10:38.988Z,76
2023-05-08T12:20:38.967Z,65
2023-05-08T12:30:39.005Z,59
2023-05-08T12:40:38.986Z,62
2023-05-08T12:50:38.953Z,61
2023-05-08T13:00:38.970Z,57
2023-05-08T13:10:38.931Z,60
2023-05-08T13:20:38.901Z,59
2023-05-08T13:30:38.916Z,61
2023-05-08T13:40:38.944Z,68
2023-05-08T13:50:38.871Z,73
2023-05-08T14:00:38.907Z,79
2023-05-08T14:10:38.960Z,78
2023-05-08T14:20:38.829Z,77
2023-05-08T14:30:38.953Z,79
2023-05-08T14:40:38.858Z,82
2023-05-08T14:50:38.957Z,87
2023-05-08T15:00:38.829Z,87
2023-05-08T15:10:38.879Z,86
2023-05-08T15:20:38.820Z,87
2023-05-08T15:30:38.831Z,89
2023-05-08T15:40:38.803Z,91
2023-05-08T15:50:38.822Z,90
2023-05-08T16:00:44.422Z,94
2023-05-08T16:10:38.789Z,96
2023-05-08T16:20:38.762Z,99
2023-05-08T16:30:38.766Z,97
2023-05-08T16:40:38.755Z,98
2023-05-08T16:50:38.696Z,100
2023-05-08T17:00:38.722Z,100
2023-05-08T17:10:38.708Z,100
2023-05-08T17:20:38.716Z,100
2023-05-08T17:30:38.694Z,100
2023-05-08T17:40:38.663Z,100
2023-05-08T17:50:38.675Z,95
2023-05-08T18:00:38.653Z,96
2023-05-08T18:10:38.825Z,100
2023-05-08T18:20:38.641Z,99
2023-05-08T18:30:38.638Z,97
2023-05-08T18:40:38.648Z,98
2023-05-08T18:50:38.615Z,99
2023-05-08T19:00:38.720Z,100
2023-05-08T19:10:38.617Z,100
2023-05-08T19:20:38.625Z,100
2023-05-08T19:30:38.615Z,100
2023-05-08T19:40:48.245Z,100
2023-05-08T19:50:38.628Z,100
2023-05-08T20:00:38.603Z,100
2023-05-08T20:10:38.589Z,98
2023-05-08T20:20:38.574Z,95
2023-05-08T20:30:38.613Z,95
2023-05-08T20:40:38.577Z,96
2023-05-08T20:50:38.638Z,97
2023-05-08T21:00:38.567Z,98
2023-05-08T21:10:38.568Z,100
2023-05-08T21:20:38.520Z,97
2023-05-08T21:30:38.573Z,100
2023-05-08T21:40:38.565Z,99
2023-05-08T21:50:38.513Z,100
2023-05-08T22:00:38.570Z,100
2023-05-08T22:10:38.573Z,100
2023-05-08T22:20:38.570Z,100
2023-05-08T22:30:38.507Z,100
2023-05-08T22:40:38.491Z,100
2023-05-08T22:50:38.458Z,100
2023-05-08T23:00:38.482Z,100
2023-05-08T23:10:38.512Z,100
2023-05-08T23:20:38.463Z,100
2023-05-08T23:30:38.484Z,100
2023-05-08T23:40:38.432Z,100
2023-05-08T23:50:38.435Z,100
